Costa Fascinosa — ICPO — position and weather

sailwx.info

Track history (hours):
 
Tides and Currents Weather Stations Pressure Air Temp Water Temp Dewpoint Dewpoint Depression Visibility Wind Speed Wind Dir Waves Ship Positions

Costa Fascinosa

Last reported at 2019-May-20 15:58 UTC. Time now 2019-May-20 16:28 UTC.
Position N 40°50' E 014°16'.

Length 291 m; draft 8.3 m.

Type: Passenger vessel. MMSI: 247313500.

Date/timePositionNaut miles runAvg speedWind from/ knotsBaromVisibWave heightAir tempDewpointWater temp
2019-May-20 15:58N 40°50' E 014°16'0 0.0
2019-May-20 15:19N 40°50' E 014°16'0 0.0
2019-May-20 14:49N 40°50' E 014°16'0 0.0
2019-May-20 14:30N 40°50' E 014°16'0 0.0
2019-May-20 13:59N 40°50' E 014°16'0 0.0
2019-May-20 13:29N 40°50' E 014°16'0 0.0
2019-May-20 12:59N 40°50' E 014°16'0 0.0
2019-May-20 12:29N 40°50' E 014°16'0 0.0
2019-May-20 11:59N 40°50' E 014°16'0 0.0
2019-May-20 11:29N 40°50' E 014°16'0 0.0
2019-May-20 10:59N 40°50' E 014°16'0 0.5
2019-May-20 10:31N 40°50' E 014°16'4 7.2
2019-May-20 10:01N 40°47' E 014°18'815.4
2019-May-20 09:31N 40°41' E 014°11'918.4
2019-May-20 09:01N 40°38' E 013°59'917.6
2019-May-20 08:31N 40°40' E 013°48'1918.8
2019-May-20 07:31N 40°53' E 013°29'16119.1
2019-May-19 23:05N 42°26' E 010°33'620.5
2019-May-19 22:46N 42°29' E 010°26'720.2
2019-May-19 22:25N 42°33' E 010°18'2420.3
2019-May-19 21:14N 42°46' E 009°51'1419.5
2019-May-19 20:33N 42°56' E 009°37'120.6
2019-May-19 20:31N 42°56' E 009°37'1020.2
2019-May-19 20:00N 43°06' E 009°32'1020.6
2019-May-19 19:31N 43°15' E 009°25'1020.3
2019-May-19 19:01N 43°23' E 009°18'1020.1
2019-May-19 18:31N 43°32' E 009°11'1020.2
2019-May-19 18:01N 43°40' E 009°03'1020.3
2019-May-19 17:31N 43°49' E 008°56'1020.6
2019-May-19 17:01N 43°58' E 008°49'1020.6
2019-May-19 16:31N 44°07' E 008°41'1020.4
2019-May-19 16:01N 44°16' E 008°34'5 9.2
2019-May-19 15:31N 44°19' E 008°30'0 0.5
2019-May-19 14:58N 44°19' E 008°30'0 0.0
2019-May-19 14:25N 44°19' E 008°30'0 0.0
2019-May-19 13:58N 44°19' E 008°30'0 0.0
2019-May-19 13:28N 44°19' E 008°30'0 0.0
2019-May-19 12:58N 44°19' E 008°30'0 0.0
2019-May-19 12:28N 44°19' E 008°30'0 0.0
2019-May-19 11:58N 44°19' E 008°30'0 0.0
2019-May-19 11:28N 44°19' E 008°30'0 0.0
2019-May-19 11:00N 44°19' E 008°30'0 0.0
2019-May-19 10:30N 44°19' E 008°30'0 0.0
2019-May-19 10:00N 44°19' E 008°30'0 0.0
2019-May-19 09:26N 44°19' E 008°30'0 0.0
2019-May-19 08:59N 44°19' E 008°30'0 0.0
2019-May-19 08:29N 44°19' E 008°30'0 0.0
2019-May-19 07:59N 44°19' E 008°30'0 0.0
2019-May-19 07:29N 44°19' E 008°30'0 0.0
2019-May-19 06:58N 44°19' E 008°30'0 0.0
2019-May-19 06:28N 44°19' E 008°30'0 1.0
2019-May-19 06:00N 44°19' E 008°30'3 5.6
2019-May-19 05:30N 44°17' E 008°32'815.8
2019-May-19 05:00N 44°09' E 008°29'1019.9
2019-May-19 04:30N 44°01' E 008°21'1120.5
2019-May-19 03:59N 43°52' E 008°13'1019.8
2019-May-19 03:30N 43°45' E 008°04'1020.2
2019-May-19 03:00N 43°39' E 007°53'1020.5
2019-May-19 02:30N 43°33' E 007°42'1020.1
2019-May-19 02:00N 43°27' E 007°31'1020.1
2019-May-19 01:30N 43°21' E 007°19'1020.4
2019-May-19 01:00N 43°15' E 007°08'1020.8
2019-May-19 00:30N 43°09' E 006°57'1019.9
2019-May-19 00:00N 43°03' E 006°46'1020.4
2019-May-18 23:30N 42°57' E 006°34'18820.7
2019-May-18 14:25N 41°27' E 002°52'820.4
2019-May-18 14:00N 41°23' E 002°42'1020.1
2019-May-18 13:30N 41°19' E 002°30'1020.2
2019-May-18 13:00N 41°17' E 002°17'611.5
2019-May-18 12:30N 41°20' E 002°10'2 3.0
2019-May-18 12:00N 41°21' E 002°10'0 0.0
2019-May-18 11:28N 41°21' E 002°10'0 0.0
2019-May-18 10:58N 41°21' E 002°10'0 0.0
2019-May-18 10:30N 41°21' E 002°10'0 0.0
2019-May-18 10:01N 41°21' E 002°10'0 0.0
2019-May-18 09:28N 41°21' E 002°10'0 0.0
2019-May-18 08:58N 41°21' E 002°10'0 0.0
2019-May-18 08:30N 41°21' E 002°10'0 0.0
2019-May-18 07:57N 41°21' E 002°10'0 0.0
2019-May-18 07:30N 41°21' E 002°10'0 0.0
2019-May-18 07:00N 41°21' E 002°10'0 0.0
2019-May-18 06:30N 41°21' E 002°10'0 0.0
2019-May-18 05:59N 41°21' E 002°10'0 0.0
2019-May-18 05:31N 41°21' E 002°10'1 1.3
2019-May-18 05:00N 41°21' E 002°10'3 5.7
2019-May-18 04:30N 41°18' E 002°11'612.5
2019-May-18 04:01N 41°12' E 002°11'713.8
2019-May-18 03:30N 41°05' E 002°12'611.8
2019-May-18 03:00N 40°59' E 002°12'9211.6
2019-May-17 19:02N 39°27' E 002°24'110.8
2019-May-17 18:55N 39°26' E 002°25'410.6
2019-May-17 18:30N 39°25' E 002°30'510.2
2019-May-17 18:00N 39°27' E 002°36'510.7
2019-May-17 17:30N 39°32' E 002°39'2 3.1
2019-May-17 17:00N 39°33' E 002°38'0 0.0
2019-May-17 16:29N 39°33' E 002°38'0 0.0
2019-May-17 15:59N 39°33' E 002°38'0 0.0
2019-May-17 15:29N 39°33' E 002°38'0 0.0
2019-May-17 14:59N 39°33' E 002°38'0 0.0
2019-May-17 14:26N 39°33' E 002°38'0 0.0
2019-May-17 13:59N 39°33' E 002°38'0 0.0
2019-May-17 13:30N 39°33' E 002°38'0 0.0
2019-May-17 12:58N 39°33' E 002°38'0 0.0
2019-May-17 12:28N 39°33' E 002°38'0 0.0
2019-May-17 11:58N 39°33' E 002°38'0 0.0
2019-May-17 11:28N 39°33' E 002°38'0 0.0
2019-May-17 10:58N 39°33' E 002°38'0 0.0
2019-May-17 10:30N 39°33' E 002°38'0 0.0
2019-May-17 10:00N 39°33' E 002°38'0 0.0
2019-May-17 09:29N 39°33' E 002°38'0 0.0
2019-May-17 08:59N 39°33' E 002°38'0 0.0
2019-May-17 08:29N 39°33' E 002°38'0 0.0
2019-May-17 07:53N 39°33' E 002°38'0 0.0
2019-May-17 07:29N 39°33' E 002°38'0 0.0
2019-May-17 07:00N 39°33' E 002°38'0 0.9
2019-May-17 06:30N 39°33' E 002°38'3 6.8
2019-May-17 06:00N 39°30' E 002°38'918.0
2019-May-17 05:30N 39°22' E 002°32'1018.5
2019-May-17 04:57N 39°14' E 002°24'3919.0
2019-May-17 02:52N 38°56' E 001°39'1016.4
2019-May-17 02:17N 38°54' E 001°27'0 0.6
2019-May-17 01:27N 38°54' E 001°27'0 0.0
2019-May-17 00:19N 38°54' E 001°27'0 0.0
2019-May-16 23:52N 38°54' E 001°27'0 0.0
2019-May-16 23:24N 38°54' E 001°27'0 0.0
2019-May-16 22:59N 38°54' E 001°27'0 0.0
2019-May-16 22:28N 38°54' E 001°27'0 0.0
2019-May-16 21:58N 38°54' E 001°27'0 0.0
2019-May-16 21:28N 38°54' E 001°27'0 0.0
2019-May-16 19:35N 38°54' E 001°27'0 0.0
2019-May-16 19:27N 38°54' E 001°27'0 0.0
2019-May-16 18:53N 38°54' E 001°27'0 0.0
2019-May-16 18:28N 38°54' E 001°27'0 0.0
2019-May-16 17:57N 38°54' E 001°27'0 0.0
2019-May-16 17:30N 38°54' E 001°27'0 0.0
2019-May-16 16:59N 38°54' E 001°27'0 0.0
2019-May-16 16:28N 38°54' E 001°27'0 0.0
2019-May-16 15:52N 38°54' E 001°27'0 0.0
2019-May-16 15:27N 38°54' E 001°27'0 0.0
2019-May-16 15:00N 38°54' E 001°27'0 0.0
2019-May-16 14:30N 38°54' E 001°27'0 0.0
2019-May-16 14:00N 38°54' E 001°27'0 0.0
2019-May-16 13:29N 38°54' E 001°27'0 0.0
2019-May-16 12:59N 38°54' E 001°27'0 0.0
2019-May-16 12:29N 38°54' E 001°27'0 0.0
2019-May-16 11:59N 38°54' E 001°27'0 0.0
2019-May-16 11:28N 38°54' E 001°27'0 0.0
2019-May-16 10:55N 38°54' E 001°27'0 0.0
2019-May-16 10:30N 38°54' E 001°27'0 0.0
2019-May-16 09:57N 38°54' E 001°27'0 0.0
2019-May-16 09:29N 38°54' E 001°27'0 0.1
2019-May-16 09:14N 38°54' E 001°27'0 0.1
2019-May-16 08:58N 38°54' E 001°27'0 0.0
2019-May-16 08:27N 38°54' E 001°27'0 0.0
2019-May-16 07:59N 38°54' E 001°27'0 0.0
2019-May-16 07:29N 38°54' E 001°27'0 0.0
2019-May-16 06:59N 38°54' E 001°27'0 0.0
2019-May-16 06:27N 38°54' E 001°27'0 0.0
2019-May-16 06:00N 38°54' E 001°27'0 0.0
2019-May-16 05:27N 38°54' E 001°27'2 3.2
2019-May-16 04:59N 38°53' E 001°27'611.8
2019-May-16 04:30N 38°50' E 001°33'5417.6
2019-May-16 01:25N 38°47' E 002°43'1017.5
2019-May-16 00:52N 38°47' E 002°55'1617.3
2019-May-15 23:58N 38°46' E 003°15'1017.6
2019-May-15 23:25N 38°45' E 003°27'817.3
2019-May-15 22:57N 38°44' E 003°38'817.2
2019-May-15 22:30N 38°44' E 003°48'41415.3
2019-May-14 19:29N 38°19' E 012°36'918.3
2019-May-14 19:00N 38°18' E 012°47'918.2
2019-May-14 18:30N 38°19' E 012°58'917.8
2019-May-14 18:00N 38°18' E 013°09'917.2
2019-May-14 17:30N 38°17' E 013°20'816.0
2019-May-14 17:00N 38°11' E 013°26'4 8.5
2019-May-14 16:30N 38°08' E 013°22'0 0.5
2019-May-14 15:59N 38°08' E 013°22'0 0.0
2019-May-14 15:28N 38°08' E 013°22'0 0.0
2019-May-14 14:58N 38°08' E 013°22'0 0.0
2019-May-14 14:28N 38°08' E 013°22'0 0.0
2019-May-14 13:58N 38°08' E 013°22'0 0.0
2019-May-14 13:28N 38°08' E 013°22'0 0.0
2019-May-14 12:57N 38°08' E 013°22'0 0.0
2019-May-14 12:27N 38°08' E 013°22'0 0.0
2019-May-14 12:00N 38°08' E 013°22'0 0.0
2019-May-14 11:30N 38°08' E 013°22'0 0.0
2019-May-14 10:59N 38°08' E 013°22'0 0.0
2019-May-14 10:28N 38°08' E 013°22'0 0.0
2019-May-14 09:59N 38°08' E 013°22'0 0.0
2019-May-14 09:30N 38°08' E 013°22'0 0.0
2019-May-14 09:00N 38°08' E 013°22'0 0.0
2019-May-14 08:30N 38°08' E 013°22'0 0.0
2019-May-14 08:00N 38°08' E 013°22'0 0.0
2019-May-14 07:30N 38°08' E 013°22'0 0.0
2019-May-14 06:58N 38°08' E 013°22'0 0.0
2019-May-14 06:28N 38°08' E 013°22'0 0.4
2019-May-14 06:01N 38°08' E 013°22'1 2.8
2019-May-14 05:31N 38°08' E 013°24'611.7
2019-May-14 05:01N 38°13' E 013°27'815.6
2019-May-14 04:31N 38°21' E 013°29'816.4
2019-May-14 04:00N 38°29' E 013°31'816.9
2019-May-14 03:30N 38°37' E 013°34'917.6
2019-May-14 02:59N 38°46' E 013°36'1017.1
2019-May-14 02:23N 38°56' E 013°39'5517.1
2019-May-13 23:09N 39°50' E 013°55'616.8
2019-May-13 22:48N 39°56' E 013°57'516.9
2019-May-13 22:30N 40°01' E 013°59'714.5
2019-May-13 22:00N 40°08' E 014°01'612.3
2019-May-13 21:30N 40°14' E 014°03'612.2
2019-May-13 21:00N 40°20' E 014°04'612.5
2019-May-13 20:30N 40°26' E 014°06'612.2
2019-May-13 20:00N 40°32' E 014°08'611.9
2019-May-13 19:30N 40°37' E 014°10'611.8
2019-May-13 19:00N 40°43' E 014°13'611.5
2019-May-13 18:30N 40°48' E 014°16'2 4.6
2019-May-13 18:00N 40°50' E 014°16'0 0.0
2019-May-13 17:29N 40°50' E 014°16'0 0.0
2019-May-13 16:58N 40°50' E 014°16'0 0.0
2019-May-13 16:27N 40°50' E 014°16'0 0.0
2019-May-13 15:59N 40°50' E 014°16'0 0.0
2019-May-13 15:30N 40°50' E 014°16'0 0.0
2019-May-13 15:00N 40°50' E 014°16'0 0.0
2019-May-13 14:30N 40°50' E 014°16'0 0.0
2019-May-13 14:00N 40°50' E 014°16'0 0.0
2019-May-13 13:30N 40°50' E 014°16'0 0.0
2019-May-13 13:00N 40°50' E 014°16'0 0.0
2019-May-13 12:30N 40°50' E 014°16'0 0.0
2019-May-13 12:00N 40°50' E 014°16'0 0.0
2019-May-13 11:29N 40°50' E 014°16'0 0.0
2019-May-13 11:00N 40°50' E 014°16'1 2.1
2019-May-13 10:30N 40°50' E 014°17'611.8
2019-May-13 10:00N 40°44' E 014°16'919.0
2019-May-13 09:30N 40°38' E 014°06'918.3
2019-May-13 09:00N 40°38' E 013°54'918.0
2019-May-13 08:30N 40°43' E 013°44'918.7
2019-May-13 08:00N 40°48' E 013°34'1018.5
2019-May-13 07:29N 40°55' E 013°24'918.5
2019-May-13 07:00N 40°59' E 013°14'14119.1
2019-May-12 23:38N 42°19' E 010°39'320.7
2019-May-12 23:29N 42°22' E 010°35'1220.8
2019-May-12 22:54N 42°29' E 010°23'1420.9
2019-May-12 22:14N 42°39' E 010°09'520.5
2019-May-12 21:59N 42°41' E 010°03'1020.6
2019-May-12 21:30N 42°46' E 009°51'1319.8
2019-May-12 20:52N 42°54' E 009°38'820.7
2019-May-12 20:30N 43°01' E 009°35'1020.7
2019-May-12 20:00N 43°10' E 009°29'1020.6
2019-May-12 19:30N 43°19' E 009°21'1020.6
2019-May-12 19:00N 43°28' E 009°14'1020.7
2019-May-12 18:30N 43°37' E 009°07'1020.6
2019-May-12 18:00N 43°45' E 008°59'1020.4
2019-May-12 17:30N 43°54' E 008°52'1020.1
2019-May-12 17:00N 44°03' E 008°45'1020.2
2019-May-12 16:31N 44°11' E 008°38'917.5
2019-May-12 16:00N 44°19' E 008°31'1 2.0
2019-May-12 15:28N 44°19' E 008°29'0 0.0
2019-May-12 14:58N 44°19' E 008°29'0 0.0
2019-May-12 14:28N 44°19' E 008°29'0 0.0
2019-May-12 13:58N 44°19' E 008°29'0 0.0
2019-May-12 13:28N 44°19' E 008°29'0 0.0
2019-May-12 12:58N 44°19' E 008°29'0 0.0
2019-May-12 12:28N 44°19' E 008°29'0 0.0
2019-May-12 11:58N 44°19' E 008°29'0 0.0
2019-May-12 11:28N 44°19' E 008°29'0 0.0
2019-May-12 10:58N 44°19' E 008°29'0 0.0
2019-May-12 10:28N 44°19' E 008°29'0 0.0
2019-May-12 09:58N 44°19' E 008°29'0 0.0
2019-May-12 09:28N 44°19' E 008°29'0 0.0
2019-May-12 08:58N 44°19' E 008°29'0 0.0
2019-May-12 08:28N 44°19' E 008°29'0 0.0
2019-May-12 08:01N 44°19' E 008°29'0 0.0
2019-May-12 07:28N 44°19' E 008°29'0 0.0
2019-May-12 06:55N 44°19' E 008°29'0 0.0
2019-May-12 06:27N 44°19' E 008°29'0 0.0
2019-May-12 06:00N 44°19' E 008°29'0 0.3
2019-May-12 05:30N 44°19' E 008°29'2 3.9
2019-May-12 05:00N 44°18' E 008°32'713.3
2019-May-12 04:30N 44°12' E 008°30'917.5
2019-May-12 04:00N 44°04' E 008°24'917.5
2019-May-12 03:30N 43°57' E 008°17'817.0
2019-May-12 03:00N 43°50' E 008°10'816.9
2019-May-12 02:30N 43°44' E 008°02'816.7
2019-May-12 02:00N 43°39' E 007°53'917.3
2019-May-12 01:30N 43°34' E 007°43'917.1
2019-May-12 01:00N 43°29' E 007°34'816.3
2019-May-12 00:31N 43°24' E 007°24'816.8
2019-May-12 00:00N 43°19' E 007°15'816.9
2019-May-11 23:30N 43°14' E 007°06'816.1
2019-May-11 23:00N 43°10' E 006°57'611.5
2019-May-11 22:31N 43°06' E 006°50'611.3
2019-May-11 22:00N 43°03' E 006°44'611.2
2019-May-11 21:30N 42°59' E 006°38'611.4
2019-May-11 21:01N 42°56' E 006°32'611.6
2019-May-11 20:30N 42°55' E 006°24'711.8
2019-May-11 19:52N 42°54' E 006°14'1112.0
2019-May-11 19:00N 42°55' E 005°60'4011.8
2019-May-11 15:38N 43°18' E 005°16'111.1
2019-May-11 15:30N 43°19' E 005°17'2 2.7
2019-May-11 14:37N 43°21' E 005°20'0 0.0
2019-May-11 13:55N 43°21' E 005°20'0 0.0
2019-May-11 12:49N 43°21' E 005°20'0 0.0
2019-May-11 12:25N 43°21' E 005°20'0 0.0
2019-May-11 11:40N 43°21' E 005°20'0 0.0
2019-May-11 11:21N 43°21' E 005°20'0 0.0
2019-May-11 09:15N 43°21' E 005°20'0 0.0
2019-May-11 09:00N 43°21' E 005°20'0 0.0
2019-May-11 07:17N 43°21' E 005°20'0 0.0
2019-May-11 06:59N 43°21' E 005°20'0 0.0
2019-May-11 06:25N 43°21' E 005°20'10 7.1
2019-May-11 04:56N 43°14' E 005°09'10814.9
2019-May-10 21:41N 41°56' E 003°28'212.7
2019-May-10 21:30N 41°54' E 003°26'612.8
2019-May-10 21:00N 41°50' E 003°20'712.7
2019-May-10 20:30N 41°46' E 003°13'612.9
2019-May-10 20:00N 41°42' E 003°06'713.0
2019-May-10 19:30N 41°38' E 002°59'712.7
2019-May-10 18:59N 41°34' E 002°52'712.6
2019-May-10 18:26N 41°30' E 002°45'512.8
2019-May-10 18:01N 41°27' E 002°39'612.6
2019-May-10 17:30N 41°23' E 002°32'612.2
2019-May-10 17:01N 41°19' E 002°25'612.0
2019-May-10 16:30N 41°16' E 002°19'611.4
2019-May-10 16:00N 41°16' E 002°11'  
Track history (hours):
 
Tides and Currents Weather Stations Pressure Air Temp Water Temp Dewpoint Dewpoint Depression Visibility Wind Speed Wind Dir Waves Ship Positions

Costa Fascinosa

Last reported at 2019-May-20 15:58 UTC. Time now 2019-May-20 16:28 UTC.
Position N 40°50' E 014°16'.

Length 291 m; draft 8.3 m.

Type: Passenger vessel. MMSI: 247313500.

Date/timePositionNaut miles runAvg speedWind from/ knotsBaromVisibWave heightAir tempDewpointWater temp
2019-May-20 15:58N 40°50' E 014°16'0 0.0
2019-May-20 15:19N 40°50' E 014°16'0 0.0
2019-May-20 14:49N 40°50' E 014°16'0 0.0
2019-May-20 14:30N 40°50' E 014°16'0 0.0
2019-May-20 13:59N 40°50' E 014°16'0 0.0
2019-May-20 13:29N 40°50' E 014°16'0 0.0
2019-May-20 12:59N 40°50' E 014°16'0 0.0
2019-May-20 12:29N 40°50' E 014°16'0 0.0
2019-May-20 11:59N 40°50' E 014°16'0 0.0
2019-May-20 11:29N 40°50' E 014°16'0 0.0
2019-May-20 10:59N 40°50' E 014°16'0 0.5
2019-May-20 10:31N 40°50' E 014°16'4 7.2
2019-May-20 10:01N 40°47' E 014°18'815.4
2019-May-20 09:31N 40°41' E 014°11'918.4
2019-May-20 09:01N 40°38' E 013°59'917.6
2019-May-20 08:31N 40°40' E 013°48'1918.8
2019-May-20 07:31N 40°53' E 013°29'16119.1
2019-May-19 23:05N 42°26' E 010°33'620.5
2019-May-19 22:46N 42°29' E 010°26'720.2
2019-May-19 22:25N 42°33' E 010°18'2420.3
2019-May-19 21:14N 42°46' E 009°51'1419.5
2019-May-19 20:33N 42°56' E 009°37'120.6
2019-May-19 20:31N 42°56' E 009°37'1020.2
2019-May-19 20:00N 43°06' E 009°32'1020.6
2019-May-19 19:31N 43°15' E 009°25'1020.3
2019-May-19 19:01N 43°23' E 009°18'1020.1
2019-May-19 18:31N 43°32' E 009°11'1020.2
2019-May-19 18:01N 43°40' E 009°03'1020.3
2019-May-19 17:31N 43°49' E 008°56'1020.6
2019-May-19 17:01N 43°58' E 008°49'1020.6
2019-May-19 16:31N 44°07' E 008°41'1020.4
2019-May-19 16:01N 44°16' E 008°34'5 9.2
2019-May-19 15:31N 44°19' E 008°30'0 0.5
2019-May-19 14:58N 44°19' E 008°30'0 0.0
2019-May-19 14:25N 44°19' E 008°30'0 0.0
2019-May-19 13:58N 44°19' E 008°30'0 0.0
2019-May-19 13:28N 44°19' E 008°30'0 0.0
2019-May-19 12:58N 44°19' E 008°30'0 0.0
2019-May-19 12:28N 44°19' E 008°30'0 0.0
2019-May-19 11:58N 44°19' E 008°30'0 0.0
2019-May-19 11:28N 44°19' E 008°30'0 0.0
2019-May-19 11:00N 44°19' E 008°30'0 0.0
2019-May-19 10:30N 44°19' E 008°30'0 0.0
2019-May-19 10:00N 44°19' E 008°30'0 0.0
2019-May-19 09:26N 44°19' E 008°30'0 0.0
2019-May-19 08:59N 44°19' E 008°30'0 0.0
2019-May-19 08:29N 44°19' E 008°30'0 0.0
2019-May-19 07:59N 44°19' E 008°30'0 0.0
2019-May-19 07:29N 44°19' E 008°30'0 0.0
2019-May-19 06:58N 44°19' E 008°30'0 0.0
2019-May-19 06:28N 44°19' E 008°30'0 1.0
2019-May-19 06:00N 44°19' E 008°30'3 5.6
2019-May-19 05:30N 44°17' E 008°32'815.8
2019-May-19 05:00N 44°09' E 008°29'1019.9
2019-May-19 04:30N 44°01' E 008°21'1120.5
2019-May-19 03:59N 43°52' E 008°13'1019.8
2019-May-19 03:30N 43°45' E 008°04'1020.2
2019-May-19 03:00N 43°39' E 007°53'1020.5
2019-May-19 02:30N 43°33' E 007°42'1020.1
2019-May-19 02:00N 43°27' E 007°31'1020.1
2019-May-19 01:30N 43°21' E 007°19'1020.4
2019-May-19 01:00N 43°15' E 007°08'1020.8
2019-May-19 00:30N 43°09' E 006°57'1019.9
2019-May-19 00:00N 43°03' E 006°46'1020.4
2019-May-18 23:30N 42°57' E 006°34'18820.7
2019-May-18 14:25N 41°27' E 002°52'820.4
2019-May-18 14:00N 41°23' E 002°42'1020.1
2019-May-18 13:30N 41°19' E 002°30'1020.2
2019-May-18 13:00N 41°17' E 002°17'611.5
2019-May-18 12:30N 41°20' E 002°10'2 3.0
2019-May-18 12:00N 41°21' E 002°10'0 0.0
2019-May-18 11:28N 41°21' E 002°10'0 0.0
2019-May-18 10:58N 41°21' E 002°10'0 0.0
2019-May-18 10:30N 41°21' E 002°10'0 0.0
2019-May-18 10:01N 41°21' E 002°10'0 0.0
2019-May-18 09:28N 41°21' E 002°10'0 0.0
2019-May-18 08:58N 41°21' E 002°10'0 0.0
2019-May-18 08:30N 41°21' E 002°10'0 0.0
2019-May-18 07:57N 41°21' E 002°10'0 0.0
2019-May-18 07:30N 41°21' E 002°10'0 0.0
2019-May-18 07:00N 41°21' E 002°10'0 0.0
2019-May-18 06:30N 41°21' E 002°10'0 0.0
2019-May-18 05:59N 41°21' E 002°10'0 0.0
2019-May-18 05:31N 41°21' E 002°10'1 1.3
2019-May-18 05:00N 41°21' E 002°10'3 5.7
2019-May-18 04:30N 41°18' E 002°11'612.5
2019-May-18 04:01N 41°12' E 002°11'713.8
2019-May-18 03:30N 41°05' E 002°12'611.8
2019-May-18 03:00N 40°59' E 002°12'9211.6
2019-May-17 19:02N 39°27' E 002°24'110.8
2019-May-17 18:55N 39°26' E 002°25'410.6
2019-May-17 18:30N 39°25' E 002°30'510.2
2019-May-17 18:00N 39°27' E 002°36'510.7
2019-May-17 17:30N 39°32' E 002°39'2 3.1
2019-May-17 17:00N 39°33' E 002°38'0 0.0
2019-May-17 16:29N 39°33' E 002°38'0 0.0
2019-May-17 15:59N 39°33' E 002°38'0 0.0
2019-May-17 15:29N 39°33' E 002°38'0 0.0
2019-May-17 14:59N 39°33' E 002°38'0 0.0
2019-May-17 14:26N 39°33' E 002°38'0 0.0
2019-May-17 13:59N 39°33' E 002°38'0 0.0
2019-May-17 13:30N 39°33' E 002°38'0 0.0
2019-May-17 12:58N 39°33' E 002°38'0 0.0
2019-May-17 12:28N 39°33' E 002°38'0 0.0
2019-May-17 11:58N 39°33' E 002°38'0 0.0
2019-May-17 11:28N 39°33' E 002°38'0 0.0
2019-May-17 10:58N 39°33' E 002°38'0 0.0
2019-May-17 10:30N 39°33' E 002°38'0 0.0
2019-May-17 10:00N 39°33' E 002°38'0 0.0
2019-May-17 09:29N 39°33' E 002°38'0 0.0
2019-May-17 08:59N 39°33' E 002°38'0 0.0
2019-May-17 08:29N 39°33' E 002°38'0 0.0
2019-May-17 07:53N 39°33' E 002°38'0 0.0
2019-May-17 07:29N 39°33' E 002°38'0 0.0
2019-May-17 07:00N 39°33' E 002°38'0 0.9
2019-May-17 06:30N 39°33' E 002°38'3 6.8
2019-May-17 06:00N 39°30' E 002°38'918.0
2019-May-17 05:30N 39°22' E 002°32'1018.5
2019-May-17 04:57N 39°14' E 002°24'3919.0
2019-May-17 02:52N 38°56' E 001°39'1016.4
2019-May-17 02:17N 38°54' E 001°27'0 0.6
2019-May-17 01:27N 38°54' E 001°27'0 0.0
2019-May-17 00:19N 38°54' E 001°27'0 0.0
2019-May-16 23:52N 38°54' E 001°27'0 0.0
2019-May-16 23:24N 38°54' E 001°27'0 0.0
2019-May-16 22:59N 38°54' E 001°27'0 0.0
2019-May-16 22:28N 38°54' E 001°27'0 0.0
2019-May-16 21:58N 38°54' E 001°27'0 0.0
2019-May-16 21:28N 38°54' E 001°27'0 0.0
2019-May-16 19:35N 38°54' E 001°27'0 0.0
2019-May-16 19:27N 38°54' E 001°27'0 0.0
2019-May-16 18:53N 38°54' E 001°27'0 0.0
2019-May-16 18:28N 38°54' E 001°27'0 0.0
2019-May-16 17:57N 38°54' E 001°27'0 0.0
2019-May-16 17:30N 38°54' E 001°27'0 0.0
2019-May-16 16:59N 38°54' E 001°27'0 0.0
2019-May-16 16:28N 38°54' E 001°27'0 0.0
2019-May-16 15:52N 38°54' E 001°27'0 0.0
2019-May-16 15:27N 38°54' E 001°27'0 0.0
2019-May-16 15:00N 38°54' E 001°27'0 0.0
2019-May-16 14:30N 38°54' E 001°27'0 0.0
2019-May-16 14:00N 38°54' E 001°27'0 0.0
2019-May-16 13:29N 38°54' E 001°27'0 0.0
2019-May-16 12:59N 38°54' E 001°27'0 0.0
2019-May-16 12:29N 38°54' E 001°27'0 0.0
2019-May-16 11:59N 38°54' E 001°27'0 0.0
2019-May-16 11:28N 38°54' E 001°27'0 0.0
2019-May-16 10:55N 38°54' E 001°27'0 0.0
2019-May-16 10:30N 38°54' E 001°27'0 0.0
2019-May-16 09:57N 38°54' E 001°27'0 0.0
2019-May-16 09:29N 38°54' E 001°27'0 0.1
2019-May-16 09:14N 38°54' E 001°27'0 0.1
2019-May-16 08:58N 38°54' E 001°27'0 0.0
2019-May-16 08:27N 38°54' E 001°27'0 0.0
2019-May-16 07:59N 38°54' E 001°27'0 0.0
2019-May-16 07:29N 38°54' E 001°27'0 0.0
2019-May-16 06:59N 38°54' E 001°27'0 0.0
2019-May-16 06:27N 38°54' E 001°27'0 0.0
2019-May-16 06:00N 38°54' E 001°27'0 0.0
2019-May-16 05:27N 38°54' E 001°27'2 3.2
2019-May-16 04:59N 38°53' E 001°27'611.8
2019-May-16 04:30N 38°50' E 001°33'5417.6
2019-May-16 01:25N 38°47' E 002°43'1017.5
2019-May-16 00:52N 38°47' E 002°55'1617.3
2019-May-15 23:58N 38°46' E 003°15'1017.6
2019-May-15 23:25N 38°45' E 003°27'817.3
2019-May-15 22:57N 38°44' E 003°38'817.2
2019-May-15 22:30N 38°44' E 003°48'41415.3
2019-May-14 19:29N 38°19' E 012°36'918.3
2019-May-14 19:00N 38°18' E 012°47'918.2
2019-May-14 18:30N 38°19' E 012°58'917.8
2019-May-14 18:00N 38°18' E 013°09'917.2
2019-May-14 17:30N 38°17' E 013°20'816.0
2019-May-14 17:00N 38°11' E 013°26'4 8.5
2019-May-14 16:30N 38°08' E 013°22'0 0.5
2019-May-14 15:59N 38°08' E 013°22'0 0.0
2019-May-14 15:28N 38°08' E 013°22'0 0.0
2019-May-14 14:58N 38°08' E 013°22'0 0.0
2019-May-14 14:28N 38°08' E 013°22'0 0.0
2019-May-14 13:58N 38°08' E 013°22'0 0.0
2019-May-14 13:28N 38°08' E 013°22'0 0.0
2019-May-14 12:57N 38°08' E 013°22'0 0.0
2019-May-14 12:27N 38°08' E 013°22'0 0.0
2019-May-14 12:00N 38°08' E 013°22'0 0.0
2019-May-14 11:30N 38°08' E 013°22'0 0.0
2019-May-14 10:59N 38°08' E 013°22'0 0.0
2019-May-14 10:28N 38°08' E 013°22'0 0.0
2019-May-14 09:59N 38°08' E 013°22'0 0.0
2019-May-14 09:30N 38°08' E 013°22'0 0.0
2019-May-14 09:00N 38°08' E 013°22'0 0.0
2019-May-14 08:30N 38°08' E 013°22'0 0.0
2019-May-14 08:00N 38°08' E 013°22'0 0.0
2019-May-14 07:30N 38°08' E 013°22'0 0.0
2019-May-14 06:58N 38°08' E 013°22'0 0.0
2019-May-14 06:28N 38°08' E 013°22'0 0.4
2019-May-14 06:01N 38°08' E 013°22'1 2.8
2019-May-14 05:31N 38°08' E 013°24'611.7
2019-May-14 05:01N 38°13' E 013°27'815.6
2019-May-14 04:31N 38°21' E 013°29'816.4
2019-May-14 04:00N 38°29' E 013°31'816.9
2019-May-14 03:30N 38°37' E 013°34'917.6
2019-May-14 02:59N 38°46' E 013°36'1017.1
2019-May-14 02:23N 38°56' E 013°39'5517.1
2019-May-13 23:09N 39°50' E 013°55'616.8
2019-May-13 22:48N 39°56' E 013°57'516.9
2019-May-13 22:30N 40°01' E 013°59'714.5
2019-May-13 22:00N 40°08' E 014°01'612.3
2019-May-13 21:30N 40°14' E 014°03'612.2
2019-May-13 21:00N 40°20' E 014°04'612.5
2019-May-13 20:30N 40°26' E 014°06'612.2
2019-May-13 20:00N 40°32' E 014°08'611.9
2019-May-13 19:30N 40°37' E 014°10'611.8
2019-May-13 19:00N 40°43' E 014°13'611.5
2019-May-13 18:30N 40°48' E 014°16'2 4.6
2019-May-13 18:00N 40°50' E 014°16'0 0.0
2019-May-13 17:29N 40°50' E 014°16'0 0.0
2019-May-13 16:58N 40°50' E 014°16'0 0.0
2019-May-13 16:27N 40°50' E 014°16'0 0.0
2019-May-13 15:59N 40°50' E 014°16'0 0.0
2019-May-13 15:30N 40°50' E 014°16'0 0.0
2019-May-13 15:00N 40°50' E 014°16'0 0.0
2019-May-13 14:30N 40°50' E 014°16'0 0.0
2019-May-13 14:00N 40°50' E 014°16'0 0.0
2019-May-13 13:30N 40°50' E 014°16'0 0.0
2019-May-13 13:00N 40°50' E 014°16'0 0.0
2019-May-13 12:30N 40°50' E 014°16'0 0.0
2019-May-13 12:00N 40°50' E 014°16'0 0.0
2019-May-13 11:29N 40°50' E 014°16'0 0.0
2019-May-13 11:00N 40°50' E 014°16'1 2.1
2019-May-13 10:30N 40°50' E 014°17'611.8
2019-May-13 10:00N 40°44' E 014°16'919.0
2019-May-13 09:30N 40°38' E 014°06'918.3
2019-May-13 09:00N 40°38' E 013°54'918.0
2019-May-13 08:30N 40°43' E 013°44'918.7
2019-May-13 08:00N 40°48' E 013°34'1018.5
2019-May-13 07:29N 40°55' E 013°24'918.5
2019-May-13 07:00N 40°59' E 013°14'14119.1
2019-May-12 23:38N 42°19' E 010°39'320.7
2019-May-12 23:29N 42°22' E 010°35'1220.8
2019-May-12 22:54N 42°29' E 010°23'1420.9
2019-May-12 22:14N 42°39' E 010°09'520.5
2019-May-12 21:59N 42°41' E 010°03'1020.6
2019-May-12 21:30N 42°46' E 009°51'1319.8
2019-May-12 20:52N 42°54' E 009°38'820.7
2019-May-12 20:30N 43°01' E 009°35'1020.7
2019-May-12 20:00N 43°10' E 009°29'1020.6
2019-May-12 19:30N 43°19' E 009°21'1020.6
2019-May-12 19:00N 43°28' E 009°14'1020.7
2019-May-12 18:30N 43°37' E 009°07'1020.6
2019-May-12 18:00N 43°45' E 008°59'1020.4
2019-May-12 17:30N 43°54' E 008°52'1020.1
2019-May-12 17:00N 44°03' E 008°45'1020.2
2019-May-12 16:31N 44°11' E 008°38'917.5
2019-May-12 16:00N 44°19' E 008°31'1 2.0
2019-May-12 15:28N 44°19' E 008°29'0 0.0
2019-May-12 14:58N 44°19' E 008°29'0 0.0
2019-May-12 14:28N 44°19' E 008°29'0 0.0
2019-May-12 13:58N 44°19' E 008°29'0 0.0
2019-May-12 13:28N 44°19' E 008°29'0 0.0
2019-May-12 12:58N 44°19' E 008°29'0 0.0
2019-May-12 12:28N 44°19' E 008°29'0 0.0
2019-May-12 11:58N 44°19' E 008°29'0 0.0
2019-May-12 11:28N 44°19' E 008°29'0 0.0
2019-May-12 10:58N 44°19' E 008°29'0 0.0
2019-May-12 10:28N 44°19' E 008°29'0 0.0
2019-May-12 09:58N 44°19' E 008°29'0 0.0
2019-May-12 09:28N 44°19' E 008°29'0 0.0
2019-May-12 08:58N 44°19' E 008°29'0 0.0
2019-May-12 08:28N 44°19' E 008°29'0 0.0
2019-May-12 08:01N 44°19' E 008°29'0 0.0
2019-May-12 07:28N 44°19' E 008°29'0 0.0
2019-May-12 06:55N 44°19' E 008°29'0 0.0
2019-May-12 06:27N 44°19' E 008°29'0 0.0
2019-May-12 06:00N 44°19' E 008°29'0 0.3
2019-May-12 05:30N 44°19' E 008°29'2 3.9
2019-May-12 05:00N 44°18' E 008°32'713.3
2019-May-12 04:30N 44°12' E 008°30'917.5
2019-May-12 04:00N 44°04' E 008°24'917.5
2019-May-12 03:30N 43°57' E 008°17'817.0
2019-May-12 03:00N 43°50' E 008°10'816.9
2019-May-12 02:30N 43°44' E 008°02'816.7
2019-May-12 02:00N 43°39' E 007°53'917.3
2019-May-12 01:30N 43°34' E 007°43'917.1
2019-May-12 01:00N 43°29' E 007°34'816.3
2019-May-12 00:31N 43°24' E 007°24'816.8
2019-May-12 00:00N 43°19' E 007°15'816.9
2019-May-11 23:30N 43°14' E 007°06'816.1
2019-May-11 23:00N 43°10' E 006°57'611.5
2019-May-11 22:31N 43°06' E 006°50'611.3
2019-May-11 22:00N 43°03' E 006°44'611.2
2019-May-11 21:30N 42°59' E 006°38'611.4
2019-May-11 21:01N 42°56' E 006°32'611.6
2019-May-11 20:30N 42°55' E 006°24'711.8
2019-May-11 19:52N 42°54' E 006°14'1112.0
2019-May-11 19:00N 42°55' E 005°60'4011.8
2019-May-11 15:38N 43°18' E 005°16'111.1
2019-May-11 15:30N 43°19' E 005°17'2 2.7
2019-May-11 14:37N 43°21' E 005°20'0 0.0
2019-May-11 13:55N 43°21' E 005°20'0 0.0
2019-May-11 12:49N 43°21' E 005°20'0 0.0
2019-May-11 12:25N 43°21' E 005°20'0 0.0
2019-May-11 11:40N 43°21' E 005°20'0 0.0
2019-May-11 11:21N 43°21' E 005°20'0 0.0
2019-May-11 09:15N 43°21' E 005°20'0 0.0
2019-May-11 09:00N 43°21' E 005°20'0 0.0
2019-May-11 07:17N 43°21' E 005°20'0 0.0
2019-May-11 06:59N 43°21' E 005°20'0 0.0
2019-May-11 06:25N 43°21' E 005°20'10 7.1
2019-May-11 04:56N 43°14' E 005°09'10814.9
2019-May-10 21:41N 41°56' E 003°28'212.7
2019-May-10 21:30N 41°54' E 003°26'612.8
2019-May-10 21:00N 41°50' E 003°20'712.7
2019-May-10 20:30N 41°46' E 003°13'612.9
2019-May-10 20:00N 41°42' E 003°06'713.0
2019-May-10 19:30N 41°38' E 002°59'712.7
2019-May-10 18:59N 41°34' E 002°52'712.6
2019-May-10 18:26N 41°30' E 002°45'512.8
2019-May-10 18:01N 41°27' E 002°39'612.6
2019-May-10 17:30N 41°23' E 002°32'612.2
2019-May-10 17:01N 41°19' E 002°25'612.0
2019-May-10 16:30N 41°16' E 002°19'611.4
2019-May-10 16:00N 41°16' E 002°11'  

Dump ship's entire track history